Time;durP1;ratioP1;P1;durP2;ratioP2;P2;SDS_P1;SDS_P2;PMS_P1;PMS_P2;Temp;Humidity;BMP_temperature;BMP_pressure;BME280_temperature;BME280_humidity;BME280_pressure;Samples;Min_cycle;Max_cycle;Signal;HPM_P1;HPM_P2
2023/07/21 00:01:02;;;;;;;;;;;20.00;43.90;;;15.98;71.89;95069.47;4968862;28;19910;-46
2023/07/21 00:03:27;;;;;;;;;;;19.90;43.90;;;15.96;70.85;95072.47;4975251;28;19956;-47
2023/07/21 00:05:54;;;;;;;;;;;19.90;44.00;;;15.92;71.02;95068.06;4990088;28;20300;-49
2023/07/21 00:08:21;;;;;;;;;;;19.90;44.10;;;15.84;72.81;95058.06;4967177;28;20001;-48
2023/07/21 00:10:47;;;;;;;;;;;19.80;44.20;;;15.83;72.31;95069.91;4974991;28;19937;-47
2023/07/21 00:13:13;;;;;;;;;;;19.70;44.20;;;15.80;72.69;95074.00;4965055;28;19916;-47
2023/07/21 00:15:39;;;;;;;;;;;19.70;44.40;;;15.78;72.10;95076.19;4959470;28;19910;-48
2023/07/21 00:18:05;;;;;;;;;;;19.70;44.50;;;15.73;70.35;95071.75;4966179;28;19964;-44
2023/07/21 00:20:31;;;;;;;;;;;19.70;44.60;;;15.74;69.95;95072.56;4972194;28;19987;-46
2023/07/21 00:22:57;;;;;;;;;;;19.70;44.60;;;15.79;69.82;95082.34;4974446;28;20269;-54
2023/07/21 00:25:22;;;;;;;;;;;19.70;44.60;;;15.81;69.53;95078.25;4968081;28;19910;-48
2023/07/21 00:27:48;;;;;;;;;;;19.80;44.70;;;15.84;69.46;95066.13;4974767;28;20447;-48
2023/07/21 00:30:14;;;;;;;;;;;19.80;44.70;;;15.88;70.52;95069.75;4972649;28;19910;-48
2023/07/21 00:32:42;;;;;;;;;;;19.80;44.70;;;15.89;70.02;95071.34;4965470;28;19909;-48
2023/07/21 00:35:08;;;;;;;;;;;19.90;44.70;;;15.96;73.07;95063.63;4974547;28;19910;-52
2023/07/21 00:37:38;;;;;;;;;;;19.90;44.80;;;16.02;72.66;95072.34;4960527;28;20328;-50
2023/07/21 00:40:09;;;;;;;;;;;19.90;44.80;;;16.05;72.02;95071.72;4954091;28;19917;-49
2023/07/21 00:42:38;;;;;;;;;;;20.00;44.90;;;16.05;70.83;95063.66;4954499;28;20289;-48
2023/07/21 00:45:05;;;;;;;;;;;20.00;44.90;;;16.05;70.54;95067.13;4955250;28;19916;-47
2023/07/21 00:47:35;;;;;;;;;;;20.00;45.00;;;16.06;73.62;95067.94;4954856;28;19954;-47
2023/07/21 00:50:01;;;;;;;;;;;20.00;45.00;;;16.03;73.87;95069.34;4954032;28;19910;-51
2023/07/21 00:52:28;;;;;;;;;;;20.00;45.10;;;16.07;73.91;95064.13;4954951;28;20349;-47
2023/07/21 00:54:53;;;;;;;;;;;20.00;45.20;;;16.05;74.62;95064.47;4954020;28;19917;-49
2023/07/21 00:57:21;;;;;;;;;;;20.00;45.20;;;16.10;74.10;95069.66;4955041;28;19929;-51
2023/07/21 00:59:47;;;;;;;;;;;20.00;45.30;;;16.11;73.77;95057.06;4950443;28;20018;-51
2023/07/21 01:02:13;;;;;;;;;;;19.90;45.40;;;16.07;72.79;95054.16;4951404;28;19997;-50
2023/07/21 01:04:40;;;;;;;;;;;19.90;45.40;;;16.00;74.38;95043.09;4953888;28;19909;-48
2023/07/21 01:07:08;;;;;;;;;;;19.90;45.50;;;15.96;73.98;95044.84;4953644;28;19953;-48
2023/07/21 01:09:36;;;;;;;;;;;19.90;45.50;;;15.91;73.63;95043.06;4950337;28;19965;-48
2023/07/21 01:12:06;;;;;;;;;;;19.80;45.40;;;15.86;73.37;95043.22;4963332;28;19910;-47
2023/07/21 01:14:35;;;;;;;;;;;19.80;45.50;;;15.78;73.26;95038.59;4949629;28;19911;-51
2023/07/21 01:17:02;;;;;;;;;;;19.70;45.60;;;15.73;73.74;95036.03;4952103;28;19913;-49
2023/07/21 01:19:31;;;;;;;;;;;19.70;46.40;;;15.69;72.89;95033.19;4953735;28;19949;-49
2023/07/21 01:22:16;;;;;;;;;;;19.70;45.80;;;15.67;72.19;95034.63;4970927;28;19916;-48
2023/07/21 01:24:51;;;;;;;;;;;19.60;45.80;;;15.66;72.29;95031.09;4968175;28;19918;-47
2023/07/21 01:27:24;;;;;;;;;;;19.60;45.90;;;15.64;72.32;95027.16;4973766;28;19921;-47
2023/07/21 01:29:52;;;;;;;;;;;19.60;46.00;;;15.60;72.56;95018.91;4972397;28;20012;-48
2023/07/21 01:32:22;;;;;;;;;;;19.50;45.90;;;15.57;72.51;95024.09;4965099;28;19910;-47
2023/07/21 01:34:50;;;;;;;;;;;19.50;46.00;;;15.52;71.56;95035.00;4973457;28;19980;-48
2023/07/21 01:37:17;;;;;;;;;;;19.50;46.00;;;15.48;71.24;95029.44;4962443;28;19918;-50
2023/07/21 01:39:44;;;;;;;;;;;19.50;46.00;;;15.45;69.32;95025.50;4970865;28;19910;-48
2023/07/21 01:42:11;;;;;;;;;;;19.50;46.10;;;15.46;70.29;95027.06;4966862;28;19965;-51
2023/07/21 01:44:38;;;;;;;;;;;19.50;46.70;;;15.48;69.20;95024.06;4960302;28;20434;-52
2023/07/21 01:47:05;;;;;;;;;;;19.50;46.10;;;15.52;71.51;95032.31;4973645;28;19964;-54
2023/07/21 01:49:31;;;;;;;;;;;19.50;46.20;;;15.59;74.21;95054.13;4966815;28;19963;-50
2023/07/21 01:51:58;;;;;;;;;;;19.50;46.30;;;15.66;73.51;95071.38;4973382;28;19937;-51
2023/07/21 01:54:45;;;;;;;;;;;19.60;46.50;;;15.74;71.80;95077.91;4968306;28;19922;-53
2023/07/21 01:57:18;;;;;;;;;;;19.60;46.60;;;15.82;70.28;95063.72;4968008;28;19910;-51
2023/07/21 01:59:46;;;;;;;;;;;19.70;46.50;;;15.83;72.18;95014.31;4988501;28;19910;-50
2023/07/21 02:02:15;;;;;;;;;;;19.80;46.50;;;15.88;69.66;95003.41;4954406;28;19917;-51
2023/07/21 02:04:50;;;;;;;;;;;19.80;46.50;;;15.93;70.55;94999.78;4972040;28;20350;-51
2023/07/21 02:07:16;;;;;;;;;;;19.70;46.40;;;15.92;71.69;95006.28;4963627;28;19925;-52
2023/07/21 02:09:42;;;;;;;;;;;19.80;46.40;;;15.85;71.21;94995.97;4964791;28;19960;-48
2023/07/21 02:12:11;;;;;;;;;;;19.70;46.40;;;15.73;70.53;94999.28;4971476;28;19910;-45
2023/07/21 02:14:37;;;;;;;;;;;19.70;46.40;;;15.71;70.10;95003.38;4973093;28;19909;-53
2023/07/21 02:17:03;;;;;;;;;;;19.70;46.40;;;15.66;69.92;95003.47;4975871;28;19909;-48
2023/07/21 02:19:29;;;;;;;;;;;19.60;46.30;;;15.63;68.92;95004.88;4965549;28;20266;-50
2023/07/21 02:21:55;;;;;;;;;;;19.60;46.40;;;15.61;68.22;94998.25;4976124;28;19940;-52
2023/07/21 02:24:20;;;;;;;;;;;19.50;46.30;;;15.54;70.32;95000.56;4973538;28;19917;-53
2023/07/21 02:26:47;;;;;;;;;;;19.50;46.30;;;15.43;69.09;94990.13;4976032;28;19980;-53
2023/07/21 02:29:13;;;;;;;;;;;19.40;46.30;;;15.37;68.11;94994.03;4977051;28;19920;-49
2023/07/21 02:31:38;;;;;;;;;;;19.40;46.40;;;15.35;68.09;94995.44;4968437;28;19913;-50
2023/07/21 02:34:05;;;;;;;;;;;19.40;46.50;;;15.37;69.72;95001.28;4976747;28;20365;-51
2023/07/21 02:36:31;;;;;;;;;;;19.30;46.40;;;15.36;69.48;95003.19;4972372;28;19910;-48
2023/07/21 02:38:57;;;;;;;;;;;19.30;46.50;;;15.33;69.46;95008.38;4969414;28;19997;-53
2023/07/21 02:41:22;;;;;;;;;;;19.30;46.40;;;15.22;70.91;95002.47;4976604;28;20302;-51
2023/07/21 02:43:48;;;;;;;;;;;19.20;46.40;;;15.18;71.10;95006.88;4946202;28;19969;-47
2023/07/21 02:46:14;;;;;;;;;;;19.20;46.50;;;15.11;70.94;95009.22;4991058;28;19920;-52
2023/07/21 02:48:40;;;;;;;;;;;19.20;46.50;;;15.03;71.27;95000.00;4970789;28;20364;-48
2023/07/21 02:51:06;;;;;;;;;;;19.10;46.60;;;14.96;71.71;95003.13;4976283;28;19941;-45
2023/07/21 02:53:32;;;;;;;;;;;19.00;46.50;;;14.88;72.96;94997.69;4976447;28;20353;-47
2023/07/21 02:56:05;;;;;;;;;;;19.00;46.60;;;14.82;73.09;95002.38;4966758;28;19981;-48
2023/07/21 02:58:32;;;;;;;;;;;18.90;46.70;;;14.73;73.86;95006.91;4976410;28;20457;-46
2023/07/21 03:00:59;;;;;;;;;;;18.80;46.80;;;14.68;74.20;94999.78;4968362;28;20265;-51
2023/07/21 03:03:26;;;;;;;;;;;18.80;46.90;;;14.60;75.77;95000.47;4969508;28;20468;-51
2023/07/21 03:05:52;;;;;;;;;;;18.70;46.90;;;14.51;75.67;94996.97;4976276;28;19914;-51
2023/07/21 03:08:28;;;;;;;;;;;18.60;47.00;;;14.50;75.49;94998.00;4964570;28;20012;-48
2023/07/21 03:10:55;;;;;;;;;;;18.60;47.10;;;14.44;75.41;95004.59;4976418;28;19921;-49
2023/07/21 03:13:22;;;;;;;;;;;18.50;47.20;;;14.37;76.00;94998.84;4974082;28;19941;-49
2023/07/21 03:15:49;;;;;;;;;;;18.40;47.20;;;14.29;76.12;95001.16;4976124;28;20005;-51
2023/07/21 03:18:15;;;;;;;;;;;18.40;47.30;;;14.22;76.84;94999.97;4974437;28;19925;-50
2023/07/21 03:20:41;;;;;;;;;;;18.30;47.40;;;14.12;77.40;94995.63;4966245;28;19909;-51
2023/07/21 03:23:07;;;;;;;;;;;18.20;47.50;;;14.05;79.10;94998.72;4975683;28;19925;-50
2023/07/21 03:25:34;;;;;;;;;;;18.10;47.60;;;13.98;79.22;94989.53;4972735;28;19910;-51
2023/07/21 03:28:03;;;;;;;;;;;18.10;47.80;;;13.91;79.40;94989.13;4975043;28;19920;-50
2023/07/21 03:30:28;;;;;;;;;;;18.10;47.90;;;13.82;79.82;94997.06;4972450;28;19917;-50
2023/07/21 03:32:54;;;;;;;;;;;18.00;48.00;;;13.77;79.58;94997.97;4972627;28;19909;-48
2023/07/21 03:35:20;;;;;;;;;;;17.90;48.00;;;13.71;79.95;94996.47;4975986;28;19949;-49
2023/07/21 03:37:45;;;;;;;;;;;17.80;48.10;;;13.58;80.76;94994.59;4972501;28;20288;-50
2023/07/21 03:40:12;;;;;;;;;;;17.80;48.20;;;13.58;79.80;94998.06;4975617;28;19910;-48
2023/07/21 03:42:37;;;;;;;;;;;17.80;48.30;;;13.58;79.26;94997.28;4966821;28;19914;-48
2023/07/21 03:45:04;;;;;;;;;;;17.70;48.40;;;13.56;79.13;94999.44;4965556;28;19917;-48
2023/07/21 03:47:31;;;;;;;;;;;17.70;48.50;;;13.52;82.57;94998.47;4975354;28;19913;-48
2023/07/21 03:49:58;;;;;;;;;;;17.70;48.60;;;13.50;82.74;94993.41;4969295;28;19932;-47
2023/07/21 03:52:24;;;;;;;;;;;17.60;48.70;;;13.46;84.08;94991.63;4975510;28;19910;-48
2023/07/21 03:54:50;;;;;;;;;;;17.60;48.70;;;13.44;84.27;94991.91;4969608;28;19917;-49
2023/07/21 03:57:16;;;;;;;;;;;17.60;48.90;;;13.45;84.58;94990.84;4972115;28;19914;-49
2023/07/21 03:59:42;;;;;;;;;;;17.60;49.00;;;13.46;84.38;94992.41;4975282;28;19956;-50
2023/07/21 04:02:09;;;;;;;;;;;17.60;49.10;;;13.45;83.65;94993.53;4961604;28;19909;-48
2023/07/21 04:04:34;;;;;;;;;;;17.60;49.10;;;13.41;83.08;94992.50;4973858;28;19932;-47
2023/07/21 04:07:05;;;;;;;;;;;17.50;49.10;;;13.40;84.63;94998.94;4970695;28;20377;-47
2023/07/21 04:09:34;;;;;;;;;;;17.50;49.20;;;13.39;84.85;94997.38;4967700;28;20283;-48
2023/07/21 04:12:02;;;;;;;;;;;17.50;49.20;;;13.37;85.69;94994.97;4974940;28;19910;-48
2023/07/21 04:14:28;;;;;;;;;;;17.50;49.30;;;13.38;85.83;94987.75;4966268;28;19917;-48
2023/07/21 04:16:54;;;;;;;;;;;17.50;50.00;;;13.33;87.73;94977.94;4974853;28;19910;-46
2023/07/21 04:19:20;;;;;;;;;;;17.50;49.40;;;13.36;87.49;94985.38;4965651;28;19910;-48
2023/07/21 04:21:47;;;;;;;;;;;17.50;49.50;;;13.28;87.38;94974.56;4973063;28;19914;-48
2023/07/21 04:24:13;;;;;;;;;;;17.40;49.60;;;13.29;87.48;94976.16;4974625;28;20352;-48
2023/07/21 04:26:39;;;;;;;;;;;17.50;49.70;;;13.31;87.01;94979.31;4952600;28;19974;-48
2023/07/21 04:29:06;;;;;;;;;;;17.50;49.80;;;13.29;86.33;94987.66;4955433;28;19920;-48
2023/07/21 04:31:32;;;;;;;;;;;17.40;49.80;;;13.27;86.37;94986.38;4954499;28;19910;-48
2023/07/21 04:33:58;;;;;;;;;;;17.50;49.90;;;13.23;87.63;94978.13;4955415;28;19972;-49
2023/07/21 04:36:25;;;;;;;;;;;17.50;49.90;;;13.26;87.70;94971.41;4954298;28;19914;-51
2023/07/21 04:38:51;;;;;;;;;;;17.50;50.00;;;13.35;86.99;94974.97;4954763;28;19910;-48
2023/07/21 04:41:16;;;;;;;;;;;17.60;50.00;;;13.49;87.01;94973.09;4954775;28;20400;-51
2023/07/21 04:43:44;;;;;;;;;;;17.70;50.10;;;13.65;86.21;94979.72;4954053;28;28044;-48
2023/07/21 04:46:12;;;;;;;;;;;17.80;50.10;;;13.87;86.35;94987.03;4956114;28;20015;-47
2023/07/21 04:48:37;;;;;;;;;;;17.90;50.10;;;14.15;85.70;94994.25;4955039;28;20384;-47
2023/07/21 04:51:03;;;;;;;;;;;18.10;50.10;;;14.40;84.12;94987.53;4955138;28;19999;-48
2023/07/21 04:53:30;;;;;;;;;;;18.40;50.00;;;14.66;82.71;94980.50;4955423;28;20049;-48
2023/07/21 04:55:57;;;;;;;;;;;18.60;49.90;;;14.88;82.74;94989.66;4953826;28;19921;-48
2023/07/21 04:58:24;;;;;;;;;;;18.90;49.90;;;15.12;79.63;94997.38;4955078;28;19964;-48
2023/07/21 05:00:51;;;;;;;;;;;19.10;49.70;;;15.30;79.01;95007.09;4955163;28;20373;-51
2023/07/21 05:03:17;;;;;;;;;;;19.30;49.60;;;15.43;77.72;95006.22;4967502;28;20372;-49
2023/07/21 05:05:46;;;;;;;;;;;19.50;49.50;;;15.54;77.20;95011.31;4974229;28;19910;-51
2023/07/21 05:08:11;;;;;;;;;;;19.60;49.40;;;15.69;77.07;95018.97;4968715;28;19913;-49
2023/07/21 05:10:37;;;;;;;;;;;19.80;49.30;;;15.81;76.25;95027.25;4973936;28;20285;-49
2023/07/21 05:13:05;;;;;;;;;;;20.00;49.20;;;15.88;77.13;95022.19;4966640;28;19917;-51
2023/07/21 05:15:35;;;;;;;;;;;20.10;49.00;;;15.94;77.82;95023.63;4973946;28;19916;-54
2023/07/21 05:18:04;;;;;;;;;;;20.30;49.20;;;16.01;77.50;95027.75;4972895;28;19952;-50
2023/07/21 05:20:30;;;;;;;;;;;20.40;48.90;;;16.06;78.13;95033.00;4955489;28;20419;-51
2023/07/21 05:22:56;;;;;;;;;;;20.40;48.80;;;16.11;80.93;95028.28;4972859;28;20001;-50
2023/07/21 05:25:21;;;;;;;;;;;20.50;48.80;;;16.14;81.60;95021.50;4970931;23;20319;-47
2023/07/21 05:27:49;;;;;;;;;;;20.60;48.80;;;16.16;83.58;95022.75;4948719;28;19976;-47
2023/07/21 05:30:15;;;;;;;;;;;20.60;48.90;;;16.17;83.92;95034.31;4956766;28;19914;-46
2023/07/21 05:32:41;;;;;;;;;;;20.60;49.00;;;16.19;83.78;95034.78;4952970;28;19932;-46
2023/07/21 05:35:08;;;;;;;;;;;20.60;49.00;;;16.16;84.31;95036.19;4953984;28;20009;-46
2023/07/21 05:37:35;;;;;;;;;;;20.70;49.10;;;16.17;83.70;95043.16;4952425;28;19917;-49
2023/07/21 05:40:01;;;;;;;;;;;20.70;49.20;;;16.19;84.55;95056.25;4953523;28;19910;-47
2023/07/21 05:42:26;;;;;;;;;;;20.70;49.30;;;16.13;82.96;95052.94;4955948;28;19967;-46
2023/07/21 05:44:52;;;;;;;;;;;20.60;49.90;;;16.13;83.47;95065.56;4952615;28;19980;-46
2023/07/21 05:47:19;;;;;;;;;;;20.60;49.40;;;16.11;83.08;95071.28;4953034;28;19910;-46
2023/07/21 05:49:45;;;;;;;;;;;20.60;49.40;;;16.08;85.69;95084.53;4952840;28;20300;-46
2023/07/21 05:52:11;;;;;;;;;;;20.60;49.60;;;16.00;86.10;95086.06;4953146;28;19916;-47
2023/07/21 05:54:37;;;;;;;;;;;20.50;49.50;;;15.99;85.14;95081.03;4953055;28;19914;-46
2023/07/21 05:57:04;;;;;;;;;;;20.50;49.60;;;15.95;86.45;95083.50;4955113;28;19917;-46
2023/07/21 05:59:32;;;;;;;;;;;20.40;49.60;;;15.91;86.00;95088.72;4954024;28;20411;-47
2023/07/21 06:01:59;;;;;;;;;;;20.40;49.80;;;15.84;86.99;95068.78;4953213;28;19953;-47
2023/07/21 06:04:25;;;;;;;;;;;20.30;49.80;;;15.81;86.83;95053.31;4953768;28;19910;-48
2023/07/21 06:06:51;;;;;;;;;;;20.30;49.80;;;15.77;86.61;95074.63;4967823;28;20266;-46
2023/07/21 06:09:17;;;;;;;;;;;20.20;49.90;;;15.77;86.79;95085.34;4953475;28;19925;-49
2023/07/21 06:11:43;;;;;;;;;;;20.20;50.00;;;15.78;87.29;95089.63;4953657;28;20407;-47
2023/07/21 06:14:09;;;;;;;;;;;20.20;50.10;;;15.76;84.22;95083.75;4950565;28;19933;-46
2023/07/21 06:16:35;;;;;;;;;;;20.20;50.20;;;15.79;85.73;95076.97;4953221;28;19917;-47
2023/07/21 06:19:00;;;;;;;;;;;20.20;50.20;;;15.80;85.16;95078.59;4951638;28;19910;-46
2023/07/21 06:21:27;;;;;;;;;;;20.20;50.20;;;15.81;84.24;95078.25;4953492;28;19918;-46
2023/07/21 06:23:53;;;;;;;;;;;20.30;50.30;;;15.84;84.59;95076.84;4951947;28;20017;-46
2023/07/21 06:26:19;;;;;;;;;;;20.30;50.30;;;15.89;87.78;95069.47;4954378;28;20005;-46
2023/07/21 06:28:45;;;;;;;;;;;20.30;50.30;;;15.90;88.96;95060.28;4953775;28;19928;-50
2023/07/21 06:31:12;;;;;;;;;;;20.30;50.40;;;15.93;88.42;95062.34;4952664;28;19910;-47
2023/07/21 06:33:38;;;;;;;;;;;20.40;50.40;;;15.95;86.51;95064.72;4953573;28;19917;-47
2023/07/21 06:36:05;;;;;;;;;;;20.40;50.40;;;15.92;85.67;95060.00;4953505;28;19914;-50
2023/07/21 06:38:31;;;;;;;;;;;20.50;50.40;;;15.88;83.87;95056.31;4950389;28;19910;-48
2023/07/21 06:40:57;;;;;;;;;;;20.50;50.30;;;15.90;84.21;95046.06;4953858;28;19910;-49
2023/07/21 06:43:23;;;;;;;;;;;20.60;50.30;;;16.09;85.10;95045.81;4952690;28;19910;-49
2023/07/21 06:45:49;;;;;;;;;;;20.70;50.30;;;16.19;83.80;95053.56;4953819;28;20385;-46
2023/07/21 06:48:14;;;;;;;;;;;20.80;50.20;;;16.28;79.73;95062.44;4931405;28;24142;-48
2023/07/21 06:50:40;;;;;;;;;;;20.90;50.20;;;16.38;80.44;95064.84;4899986;28;19910;-47
2023/07/21 06:53:06;;;;;;;;;;;21.10;50.10;;;16.55;81.04;95060.63;4931250;29;20377;-47
2023/07/21 06:55:33;;;;;;;;;;;21.30;50.10;;;16.66;81.27;95070.72;4933734;29;19952;-47
2023/07/21 06:57:59;;;;;;;;;;;21.30;50.00;;;16.83;81.38;95061.91;4934305;29;19938;-51
2023/07/21 07:00:25;;;;;;;;;;;21.50;50.00;;;17.00;81.08;95068.41;4933464;29;19910;-46
2023/07/21 07:02:51;;;;;;;;;;;21.70;50.00;;;17.10;80.02;95090.38;4935320;29;19910;-47
2023/07/21 07:05:17;;;;;;;;;;;21.80;49.80;;;17.28;79.17;95085.00;4937751;29;19921;-47
2023/07/21 07:07:43;;;;;;;;;;;22.10;49.70;;;17.45;76.99;95086.84;4934961;28;19978;-47
2023/07/21 07:10:10;;;;;;;;;;;22.30;49.60;;;17.54;76.58;95082.25;4938339;28;20344;-47
2023/07/21 07:12:38;;;;;;;;;;;22.60;49.30;;;17.73;76.40;95090.75;4937488;28;19941;-46
2023/07/21 07:15:05;;;;;;;;;;;22.80;49.10;;;17.92;75.67;95074.22;4948068;28;20262;-51
2023/07/21 07:17:31;;;;;;;;;;;23.00;48.90;;;18.15;74.32;95064.00;4943487;28;19937;-48
2023/07/21 07:19:57;;;;;;;;;;;23.20;48.70;;;18.32;74.01;95055.03;4943379;28;19914;-47
2023/07/21 07:22:23;;;;;;;;;;;23.30;48.50;;;18.45;71.19;95064.75;4946553;28;20331;-50
2023/07/21 07:24:49;;;;;;;;;;;23.50;48.40;;;18.68;70.20;95069.88;4940665;28;20521;-46
2023/07/21 07:27:14;;;;;;;;;;;23.80;48.10;;;19.04;69.82;95073.91;4942035;28;19937;-50
2023/07/21 07:29:40;;;;;;;;;;;24.10;47.80;;;19.16;68.46;95073.97;4943304;28;19940;-49
2023/07/21 07:32:07;;;;;;;;;;;24.40;47.60;;;19.34;66.75;95061.09;4940377;28;20009;-48
2023/07/21 07:34:33;;;;;;;;;;;24.70;47.20;;;19.74;66.55;95055.13;4951064;28;19945;-47
2023/07/21 07:36:59;;;;;;;;;;;25.10;46.90;;;19.93;63.26;95058.09;4943252;28;19977;-49
2023/07/21 07:39:25;;;;;;;;;;;25.50;46.70;;;20.07;63.37;95060.47;4950461;28;19910;-47
2023/07/21 07:41:51;;;;;;;;;;;25.70;46.40;;;20.22;63.78;95059.00;4956209;28;19909;-47
2023/07/21 07:44:20;;;;;;;;;;;25.90;46.00;;;20.43;63.23;95046.16;4950560;28;19914;-50
2023/07/21 07:46:46;;;;;;;;;;;26.00;45.80;;;20.64;61.82;95047.94;4956041;28;20270;-47
2023/07/21 07:49:12;;;;;;;;;;;26.10;45.80;;;20.76;60.62;95058.75;4948217;28;19922;-49
2023/07/21 07:51:40;;;;;;;;;;;26.20;45.60;;;20.83;60.76;95060.88;4954591;28;19950;-47
2023/07/21 07:54:07;;;;;;;;;;;26.30;45.50;;;20.87;59.02;95064.47;4956041;28;19910;-48
2023/07/21 07:56:33;;;;;;;;;;;26.30;45.20;;;20.92;58.72;95061.53;4942342;28;20008;-49
2023/07/21 07:58:59;;;;;;;;;;;26.40;45.00;;;20.98;58.24;95063.66;4955979;28;19910;-48
2023/07/21 08:01:26;;;;;;;;;;;26.50;44.80;;;21.14;59.29;95071.81;4942432;28;19920;-50
2023/07/21 08:03:53;;;;;;;;;;;26.60;44.60;;;21.05;59.05;95078.53;4955423;28;19910;-52
2023/07/21 08:06:19;;;;;;;;;;;26.70;44.40;;;20.95;59.48;95096.03;4955040;28;19917;-48
2023/07/21 08:08:46;;;;;;;;;;;26.80;44.20;;;20.98;59.54;95101.53;4941755;28;20002;-49
2023/07/21 08:11:12;;;;;;;;;;;26.80;43.90;;;20.90;60.12;95104.38;4949177;28;20301;-51
2023/07/21 08:13:39;;;;;;;;;;;26.80;43.80;;;21.07;60.76;95106.84;4947473;28;19917;-50
2023/07/21 08:16:15;;;;;;;;;;;26.80;43.80;;;20.94;60.89;95113.41;4956142;28;20006;-49
2023/07/21 08:18:41;;;;;;;;;;;26.80;43.80;;;20.99;60.32;95121.28;4941284;28;19921;-47
2023/07/21 08:21:22;;;;;;;;;;;26.80;43.60;;;20.98;60.75;95117.78;4955695;28;19910;-48
2023/07/21 08:23:50;;;;;;;;;;;26.90;43.50;;;20.59;61.97;95115.81;4955362;28;20004;-48
2023/07/21 08:26:20;;;;;;;;;;;26.90;43.20;;;20.95;61.95;95114.97;4948253;28;19917;-47
2023/07/21 08:28:46;;;;;;;;;;;26.90;43.20;;;21.29;61.16;95116.34;4955259;28;19921;-47
2023/07/21 08:31:12;;;;;;;;;;;27.10;43.30;;;21.60;60.24;95101.38;4947627;28;19910;-47
2023/07/21 08:33:39;;;;;;;;;;;27.30;43.30;;;21.68;58.25;95092.28;4939932;28;19910;-47
2023/07/21 08:36:06;;;;;;;;;;;27.30;43.20;;;21.65;58.75;95074.78;4955525;28;19910;-47
2023/07/21 08:38:34;;;;;;;;;;;27.40;43.20;;;21.86;57.90;95074.53;4950937;28;19996;-47
2023/07/21 08:41:16;;;;;;;;;;;27.50;43.10;;;22.01;58.03;95061.34;4955278;28;19928;-49
2023/07/21 08:43:43;;;;;;;;;;;27.60;42.90;;;22.16;57.83;95066.81;4957996;28;19957;-47
2023/07/21 08:46:09;;;;;;;;;;;27.70;43.00;;;22.18;56.45;95072.66;4949347;28;19949;-47
2023/07/21 08:48:35;;;;;;;;;;;27.80;42.90;;;22.06;56.26;95072.75;4951027;28;20410;-49
2023/07/21 08:51:03;;;;;;;;;;;28.00;42.70;;;22.21;56.50;95062.25;4942627;28;19910;-48
2023/07/21 08:53:29;;;;;;;;;;;28.00;42.40;;;22.43;55.33;95045.31;4942074;28;19964;-49
2023/07/21 08:55:58;;;;;;;;;;;28.10;42.40;;;22.58;55.03;95035.59;4941684;28;20341;-50
2023/07/21 08:58:25;;;;;;;;;;;28.20;42.20;;;22.70;53.98;95024.59;4954972;28;19917;-48
2023/07/21 09:00:53;;;;;;;;;;;28.40;42.20;;;22.56;53.26;95022.38;4939858;28;20280;-49
2023/07/21 09:03:27;;;;;;;;;;;28.50;41.70;;;22.73;53.40;95029.31;4954883;28;20361;-48
2023/07/21 09:05:59;;;;;;;;;;;28.70;41.50;;;22.86;53.38;95038.91;4954572;28;19937;-48
2023/07/21 09:08:29;;;;;;;;;;;28.90;41.40;;;23.20;53.71;95041.16;4947799;28;19914;-48
2023/07/21 09:10:59;;;;;;;;;;;29.20;41.20;;;22.87;53.68;95045.91;4966595;28;19917;-53
2023/07/21 09:13:28;;;;;;;;;;;29.40;41.00;;;22.97;54.37;95054.66;4944136;28;19953;-48
2023/07/21 09:15:57;;;;;;;;;;;29.50;40.80;;;23.31;53.52;95061.16;4952256;28;20368;-52
2023/07/21 09:18:40;;;;;;;;;;;29.60;40.70;;;23.35;53.15;95058.50;4952758;28;19932;-51
2023/07/21 09:21:07;;;;;;;;;;;29.70;40.40;;;23.48;53.15;95062.66;4942116;28;19910;-53
2023/07/21 09:23:33;;;;;;;;;;;29.70;40.40;;;23.01;54.40;95075.31;4954186;28;19956;-51
2023/07/21 09:26:00;;;;;;;;;;;29.50;40.10;;;22.58;56.13;95076.28;4946131;28;19910;-50
2023/07/21 09:28:45;;;;;;;;;;;29.30;40.00;;;22.46;58.40;95092.69;4948148;28;19972;-54
2023/07/21 09:31:14;;;;;;;;;;;29.00;40.00;;;22.43;60.76;95093.38;4946799;28;20380;-50
2023/07/21 09:33:46;;;;;;;;;;;28.80;40.20;;;22.27;65.14;95096.09;4939029;28;20289;-51
2023/07/21 09:36:15;;;;;;;;;;;28.50;40.40;;;22.36;66.39;95102.16;4954589;28;19910;-48
2023/07/21 09:38:43;;;;;;;;;;;28.40;40.80;;;22.15;65.19;95096.94;4949111;28;19972;-54
2023/07/21 09:41:15;;;;;;;;;;;28.10;41.00;;;22.26;71.22;95089.13;4954230;28;19910;-51
2023/07/21 09:43:42;;;;;;;;;;;27.90;41.40;;;22.29;69.53;95072.13;4941399;28;19910;-49
2023/07/21 09:46:10;;;;;;;;;;;27.80;41.90;;;22.08;65.00;95075.09;4954092;28;19952;-51
2023/07/21 09:48:40;;;;;;;;;;;27.60;42.10;;;22.00;69.37;95074.13;4950433;28;19949;-48
2023/07/21 09:51:10;;;;;;;;;;;27.50;42.90;;;21.84;68.54;95070.59;4948179;28;19910;-48
2023/07/21 09:53:44;;;;;;;;;;;27.40;42.40;;;21.70;69.42;95079.16;4954056;28;19910;-54
2023/07/21 09:56:12;;;;;;;;;;;27.30;42.50;;;21.66;70.51;95097.28;4952406;28;20005;-51
2023/07/21 09:59:00;;;;;;;;;;;27.30;42.80;;;21.48;73.31;95115.75;4954132;28;19917;-48
2023/07/21 10:01:29;;;;;;;;;;;27.20;43.00;;;21.01;73.00;95117.09;4937409;28;19914;-50
2023/07/21 10:03:57;;;;;;;;;;;27.00;43.20;;;20.85;72.56;95121.66;4954045;28;19945;-48
2023/07/21 10:06:25;;;;;;;;;;;26.70;43.40;;;20.52;71.75;95140.72;4951433;28;20376;-48
2023/07/21 10:08:52;;;;;;;;;;;26.30;43.70;;;20.31;73.53;95143.53;4930513;29;19921;-47
2023/07/21 10:11:18;;;;;;;;;;;26.00;44.20;;;20.09;73.75;95145.53;4968907;28;19910;-48
2023/07/21 10:13:47;;;;;;;;;;;25.70;44.60;;;20.10;74.32;95147.09;4930070;28;19910;-54
2023/07/21 10:16:14;;;;;;;;;;;25.60;45.00;;;20.09;72.52;95140.13;4941831;29;19910;-47
2023/07/21 10:19:06;;;;;;;;;;;25.50;45.10;;;20.12;76.44;95135.97;4949966;28;19914;-49
2023/07/21 10:21:52;;;;;;;;;;;25.50;45.30;;;20.02;76.66;95139.84;4954003;28;19917;-48
2023/07/21 10:24:28;;;;;;;;;;;25.50;45.40;;;20.09;78.16;95150.16;4952327;28;20332;-48
2023/07/21 10:27:03;;;;;;;;;;;25.50;45.40;;;20.10;77.66;95136.28;4936242;29;19910;-48
2023/07/21 10:29:29;;;;;;;;;;;25.60;45.60;;;20.05;78.08;95141.91;4953869;28;20265;-48
2023/07/21 10:31:58;;;;;;;;;;;25.50;45.80;;;20.14;77.15;95151.84;4952055;29;19917;-47
2023/07/21 10:34:43;;;;;;;;;;;25.50;46.00;;;20.07;77.84;95155.09;4945322;28;19911;-50
2023/07/21 10:37:09;;;;;;;;;;;25.50;46.10;;;20.06;76.85;95156.22;4949508;28;20464;-47
2023/07/21 10:39:43;;;;;;;;;;;25.60;46.10;;;20.05;78.51;95160.03;4946413;28;20370;-50
2023/07/21 10:42:11;;;;;;;;;;;25.70;46.20;;;19.91;78.72;95162.25;4944481;28;19918;-52
2023/07/21 10:44:47;;;;;;;;;;;25.70;46.30;;;20.10;77.01;95167.94;4950537;28;19957;-49
2023/07/21 10:47:16;;;;;;;;;;;25.90;46.30;;;20.10;74.51;95171.44;4957419;28;19910;-48
2023/07/21 10:49:42;;;;;;;;;;;26.10;46.20;;;20.63;75.43;95176.25;4946083;28;19953;-48
2023/07/21 10:52:09;;;;;;;;;;;26.50;46.10;;;21.05;73.28;95184.09;4956656;28;19910;-50
2023/07/21 10:54:39;;;;;;;;;;;27.00;45.90;;;21.49;69.90;95185.03;4955158;28;20281;-47
2023/07/21 10:57:05;;;;;;;;;;;27.60;45.40;;;22.07;66.96;95177.34;4957299;28;20373;-48
2023/07/21 10:59:34;;;;;;;;;;;28.20;45.20;;;22.22;64.33;95185.88;4957144;28;19910;-48
2023/07/21 11:02:03;;;;;;;;;;;28.60;44.80;;;22.34;63.21;95162.19;4951483;28;19914;-49
2023/07/21 11:04:33;;;;;;;;;;;28.80;44.40;;;22.22;63.78;95159.56;4957134;28;19910;-52
2023/07/21 11:07:00;;;;;;;;;;;28.90;44.10;;;22.31;63.10;95173.75;4955522;28;19910;-50
2023/07/21 11:09:33;;;;;;;;;;;29.00;43.70;;;22.66;61.17;95159.47;4945691;28;19925;-49
2023/07/21 11:12:00;;;;;;;;;;;29.40;43.40;;;23.51;60.11;95157.88;4956913;28;19910;-49
2023/07/21 11:14:27;;;;;;;;;;;30.10;42.90;;;24.32;56.92;95162.50;4942922;28;19910;-50
2023/07/21 11:17:04;;;;;;;;;;;31.10;42.30;;;24.55;54.37;95167.97;4957069;28;19917;-50
2023/07/21 11:19:34;;;;;;;;;;;31.80;41.40;;;24.58;53.82;95166.47;4951913;28;19917;-51